createdAt,value
2023-09-08T00:00:27.387Z,3.03
2023-09-08T00:02:01.065Z,3.88
2023-09-08T00:03:33.623Z,3.85
2023-09-08T00:05:08.065Z,4.82
2023-09-08T00:06:40.626Z,4.93
2023-09-08T00:08:14.028Z,3.55
2023-09-08T00:09:47.062Z,3.53
2023-09-08T00:11:21.974Z,6.18
2023-09-08T00:14:27.727Z,4.60
2023-09-08T00:16:01.365Z,3.42
2023-09-08T00:17:33.877Z,4.43
2023-09-08T00:19:07.479Z,3.85
2023-09-08T00:20:40.032Z,3.28
2023-09-08T00:22:14.223Z,5.18
2023-09-08T00:23:46.685Z,3.58
2023-09-08T00:25:20.213Z,3.72
2023-09-08T00:26:55.178Z,4.60
2023-09-08T00:28:27.777Z,4.32
2023-09-08T00:30:02.946Z,4.13
2023-09-08T00:31:36.782Z,4.60
2023-09-08T00:33:10.507Z,3.85
2023-09-08T00:34:43.367Z,3.85
2023-09-08T00:36:17.487Z,3.47
2023-09-08T00:37:51.051Z,3.75
2023-09-08T00:39:23.752Z,3.35
2023-09-08T00:40:57.404Z,3.20
2023-09-08T00:42:32.249Z,3.88
2023-09-08T00:45:44.180Z,2.92
2023-09-08T00:47:17.605Z,5.40
2023-09-08T00:48:51.287Z,3.88
2023-09-08T00:50:23.961Z,3.72
2023-09-08T00:51:58.153Z,4.43
2023-09-08T00:53:31.685Z,3.35
2023-09-08T00:55:06.185Z,3.63
2023-09-08T00:56:40.047Z,3.40
2023-09-08T00:58:16.419Z,4.55
2023-09-08T00:59:49.197Z,5.72
2023-09-08T01:01:22.790Z,4.10
2023-09-08T01:02:55.559Z,3.17
2023-09-08T01:04:29.647Z,3.30
2023-09-08T01:06:03.260Z,7.07
2023-09-08T01:07:37.580Z,4.25
2023-09-08T01:09:14.492Z,4.65
2023-09-08T01:10:47.426Z,4.95
2023-09-08T01:12:21.829Z,3.17
2023-09-08T01:13:55.655Z,4.82
2023-09-08T01:15:29.445Z,3.33
2023-09-08T01:17:02.201Z,3.40
2023-09-08T01:18:37.362Z,5.03
2023-09-08T01:20:22.686Z,4.53
2023-09-08T01:22:31.301Z,4.65
2023-09-08T01:24:38.966Z,4.88
2023-09-08T01:26:22.438Z,4.53
2023-09-08T01:27:59.721Z,3.05
2023-09-08T01:29:34.715Z,4.47
2023-09-08T01:32:43.334Z,3.72
2023-09-08T01:34:17.192Z,4.30
2023-09-08T01:35:51.297Z,4.18
2023-09-08T01:37:25.541Z,4.75
2023-09-08T01:38:58.146Z,4.55
2023-09-08T01:40:32.882Z,3.65
2023-09-08T01:42:07.144Z,4.30
2023-09-08T01:43:41.018Z,3.63
2023-09-08T01:45:13.680Z,4.70
2023-09-08T01:46:47.104Z,3.75
2023-09-08T01:48:20.765Z,4.78
2023-09-08T01:49:53.254Z,3.40
2023-09-08T01:51:26.961Z,3.40
2023-09-08T01:52:59.410Z,3.47
2023-09-08T01:54:32.987Z,3.83
2023-09-08T01:56:05.582Z,4.03
2023-09-08T01:57:40.449Z,4.30
2023-09-08T01:59:12.973Z,4.32
2023-09-08T02:00:51.930Z,4.82
2023-09-08T02:02:24.620Z,5.10
2023-09-08T02:03:58.247Z,5.63
2023-09-08T02:05:31.759Z,4.40
2023-09-08T02:07:06.441Z,4.28
2023-09-08T02:08:40.078Z,4.25
2023-09-08T02:10:13.383Z,4.70
2023-09-08T02:11:46.881Z,4.45
2023-09-08T02:13:20.901Z,4.43
2023-09-08T02:14:54.479Z,4.22
2023-09-08T02:16:27.093Z,3.35
2023-09-08T02:18:00.693Z,3.83
2023-09-08T02:19:33.316Z,3.80
2023-09-08T02:21:06.845Z,3.97
2023-09-08T02:22:39.434Z,5.20
2023-09-08T02:24:13.337Z,4.03
2023-09-08T02:25:45.974Z,3.60
2023-09-08T02:27:19.745Z,3.40
2023-09-08T02:28:57.402Z,4.25
2023-09-08T02:30:31.962Z,3.97
2023-09-08T02:32:07.602Z,3.83
2023-09-08T02:33:40.335Z,3.20
2023-09-08T02:35:14.041Z,3.42
2023-09-08T02:36:48.714Z,4.03
2023-09-08T02:38:22.322Z,2.95
2023-09-08T02:39:55.846Z,4.05
2023-09-08T02:41:28.432Z,3.97
2023-09-08T02:43:02.207Z,3.42
2023-09-08T02:44:36.262Z,3.80
2023-09-08T02:46:10.809Z,4.45
2023-09-08T02:47:44.016Z,4.88
2023-09-08T02:49:17.625Z,3.28
2023-09-08T02:50:50.208Z,4.47
2023-09-08T02:52:23.758Z,4.13
2023-09-08T02:53:56.318Z,4.65
2023-09-08T02:55:30.764Z,5.43
2023-09-08T02:57:05.378Z,4.07
2023-09-08T02:58:38.222Z,4.78
2023-09-08T03:00:15.611Z,6.85
2023-09-08T03:01:48.288Z,3.58
2023-09-08T03:03:22.238Z,4.00
2023-09-08T03:04:55.139Z,4.45
2023-09-08T03:06:28.851Z,4.05
2023-09-08T03:08:01.825Z,4.53
2023-09-08T03:09:36.697Z,3.22
2023-09-08T03:12:43.211Z,4.38
2023-09-08T03:14:15.872Z,2.92
2023-09-08T03:15:50.832Z,3.85
2023-09-08T03:17:23.623Z,3.95
2023-09-08T03:18:57.438Z,3.10
2023-09-08T03:20:30.458Z,4.10
2023-09-08T03:22:04.200Z,3.72
2023-09-08T03:23:38.876Z,3.90
2023-09-08T03:25:11.404Z,3.30
2023-09-08T03:26:44.870Z,4.20
2023-09-08T03:28:17.467Z,2.88
2023-09-08T03:29:51.025Z,4.03
2023-09-08T03:31:26.112Z,3.72
2023-09-08T03:32:58.763Z,2.95
2023-09-08T03:34:33.111Z,3.15
2023-09-08T03:36:05.923Z,3.15
2023-09-08T03:37:39.544Z,3.63
2023-09-08T03:39:12.332Z,3.90
2023-09-08T03:40:45.849Z,5.05
2023-09-08T03:42:18.896Z,4.63
2023-09-08T03:43:52.545Z,4.53
2023-09-08T03:45:25.094Z,3.28
2023-09-08T03:47:02.998Z,5.10
2023-09-08T03:48:36.690Z,3.78
2023-09-08T03:50:12.225Z,4.03
2023-09-08T03:51:45.704Z,3.58
2023-09-08T03:53:19.260Z,4.25
2023-09-08T03:54:51.935Z,4.05
2023-09-08T03:56:25.559Z,3.85
2023-09-08T03:57:59.990Z,4.30
2023-09-08T03:59:33.777Z,4.65
2023-09-08T04:01:07.306Z,3.72
2023-09-08T04:02:41.503Z,3.92
2023-09-08T04:04:15.004Z,4.47
2023-09-08T04:05:48.018Z,3.53
2023-09-08T04:07:21.612Z,4.43
2023-09-08T04:08:55.276Z,5.38
2023-09-08T04:10:29.100Z,3.00
2023-09-08T04:12:01.869Z,3.22
2023-09-08T04:13:37.589Z,3.42
2023-09-08T04:15:11.304Z,3.65
2023-09-08T04:16:44.875Z,5.75
2023-09-08T04:18:19.120Z,3.42
2023-09-08T04:19:52.703Z,3.33
2023-09-08T04:21:26.062Z,3.38
2023-09-08T04:22:59.622Z,6.50
2023-09-08T04:24:37.214Z,5.55
2023-09-08T04:26:10.948Z,3.97
2023-09-08T04:27:43.793Z,2.95
2023-09-08T04:29:17.338Z,3.70
2023-09-08T04:30:51.241Z,3.85
2023-09-08T04:32:23.883Z,3.72
2023-09-08T04:33:59.009Z,3.63
2023-09-08T04:35:33.136Z,4.40
2023-09-08T04:37:06.853Z,3.85
2023-09-08T04:38:42.790Z,3.45
2023-09-08T04:40:17.896Z,3.55
2023-09-08T04:41:50.519Z,3.78
2023-09-08T04:43:24.268Z,3.70
2023-09-08T04:44:57.388Z,3.42
2023-09-08T04:46:30.972Z,3.65
2023-09-08T04:48:04.986Z,3.25
2023-09-08T04:49:39.068Z,3.95
2023-09-08T04:51:12.670Z,4.13
2023-09-08T04:52:46.616Z,3.92
2023-09-08T04:54:21.073Z,3.50
2023-09-08T04:55:55.932Z,4.05
2023-09-08T04:57:28.593Z,3.75
2023-09-08T04:59:05.039Z,3.88
2023-09-08T05:00:41.024Z,4.32
2023-09-08T05:02:14.437Z,5.18
2023-09-08T05:03:48.256Z,4.60
2023-09-08T05:05:23.561Z,5.05
2023-09-08T05:06:56.067Z,3.72
2023-09-08T05:08:30.098Z,3.88
2023-09-08T05:10:03.780Z,3.10
2023-09-08T05:11:39.951Z,3.53
2023-09-08T05:13:24.175Z,3.90
2023-09-08T05:15:07.954Z,3.58
2023-09-08T05:16:47.727Z,3.50
2023-09-08T05:18:26.469Z,3.28
2023-09-08T05:20:00.541Z,3.80
2023-09-08T05:21:35.979Z,4.32
2023-09-08T05:23:10.820Z,3.90
2023-09-08T05:24:44.704Z,4.18
2023-09-08T05:26:17.606Z,4.00
2023-09-08T05:27:51.242Z,3.85
2023-09-08T05:29:24.876Z,2.78
2023-09-08T05:30:57.757Z,3.58
2023-09-08T05:32:31.965Z,4.68
2023-09-08T05:34:05.048Z,5.90
2023-09-08T05:35:39.035Z,4.60
2023-09-08T05:37:14.069Z,3.53
2023-09-08T05:38:46.675Z,3.25
2023-09-08T05:40:22.498Z,4.53
2023-09-08T05:41:55.376Z,3.60
2023-09-08T05:43:34.070Z,5.12
2023-09-08T05:45:09.263Z,6.90
2023-09-08T05:46:41.883Z,3.65
2023-09-08T05:48:15.919Z,3.92
2023-09-08T05:49:48.941Z,5.32
2023-09-08T05:51:23.658Z,6.07
2023-09-08T05:52:59.172Z,3.95
2023-09-08T05:54:32.194Z,4.07
2023-09-08T05:56:06.560Z,3.15
2023-09-08T05:57:39.792Z,4.40
2023-09-08T05:59:13.320Z,3.92
2023-09-08T06:00:46.736Z,5.35
2023-09-08T06:02:20.888Z,3.15
2023-09-08T06:03:55.563Z,3.90
2023-09-08T06:05:29.454Z,4.13
2023-09-08T06:07:02.258Z,4.00
2023-09-08T06:10:11.905Z,3.65
2023-09-08T06:11:45.771Z,3.95
2023-09-08T06:13:18.372Z,3.53
2023-09-08T06:14:51.953Z,3.78
2023-09-08T06:16:24.478Z,3.88
2023-09-08T06:17:58.049Z,3.72
2023-09-08T06:19:32.025Z,3.53
2023-09-08T06:21:04.860Z,3.38
2023-09-08T06:22:38.515Z,3.42
2023-09-08T06:24:13.632Z,3.42
2023-09-08T06:25:46.450Z,3.35
2023-09-08T06:27:20.220Z,3.83
2023-09-08T06:28:53.712Z,7.40
2023-09-08T06:30:26.321Z,3.15
2023-09-08T06:32:01.087Z,3.58
2023-09-08T06:35:07.640Z,3.13
2023-09-08T06:36:41.162Z,3.63
2023-09-08T06:38:14.095Z,3.42
2023-09-08T06:39:49.249Z,3.25
2023-09-08T06:41:21.849Z,2.97
2023-09-08T06:42:58.612Z,3.67
2023-09-08T06:44:43.532Z,3.42
2023-09-08T06:46:16.445Z,3.60
2023-09-08T06:47:51.358Z,3.38
2023-09-08T06:49:24.026Z,3.25
2023-09-08T06:50:58.403Z,2.83
2023-09-08T06:52:32.193Z,4.03
2023-09-08T06:54:06.058Z,4.50
2023-09-08T06:55:50.498Z,4.07
2023-09-08T06:57:23.072Z,3.72
2023-09-08T06:58:58.885Z,4.25
2023-09-08T07:00:31.825Z,3.72
2023-09-08T07:02:07.201Z,4.07
2023-09-08T07:03:39.998Z,4.13
2023-09-08T07:05:16.825Z,4.13
2023-09-08T07:06:51.161Z,3.53
2023-09-08T07:08:25.348Z,4.05
2023-09-08T07:09:57.921Z,3.83
2023-09-08T07:11:32.795Z,4.28
2023-09-08T07:13:05.753Z,3.50
2023-09-08T07:14:39.527Z,3.10
2023-09-08T07:16:13.196Z,4.68
2023-09-08T07:17:47.100Z,3.92
2023-09-08T07:19:19.868Z,6.88
2023-09-08T07:20:53.818Z,3.80
2023-09-08T07:24:01.717Z,4.20
2023-09-08T07:27:10.157Z,4.35
2023-09-08T07:28:42.719Z,4.70
2023-09-08T07:30:20.443Z,5.45
2023-09-08T07:31:54.047Z,5.07
2023-09-08T07:33:27.722Z,4.05
2023-09-08T07:35:00.448Z,4.57
2023-09-08T07:36:34.018Z,5.72
2023-09-08T07:38:07.898Z,3.67
2023-09-08T07:39:41.462Z,4.00
2023-09-08T07:41:14.438Z,4.47
2023-09-08T07:42:49.737Z,4.80
2023-09-08T07:44:23.426Z,4.25
2023-09-08T07:45:56.313Z,3.67
2023-09-08T07:47:31.693Z,7.65
2023-09-08T07:49:04.704Z,4.28
2023-09-08T07:50:39.292Z,4.25
2023-09-08T07:52:11.871Z,5.35
2023-09-08T07:53:45.486Z,4.13
2023-09-08T07:55:18.640Z,3.95
2023-09-08T07:56:52.524Z,5.13
2023-09-08T07:58:26.817Z,5.05
2023-09-08T08:00:00.363Z,4.55
2023-09-08T08:01:33.340Z,6.28
2023-09-08T08:03:08.228Z,4.60
2023-09-08T08:04:40.825Z,4.75
2023-09-08T08:06:14.384Z,4.10
2023-09-08T08:07:47.107Z,4.55
2023-09-08T08:09:20.573Z,4.20
2023-09-08T08:10:53.080Z,4.78
2023-09-08T08:12:26.653Z,5.28
2023-09-08T08:14:02.099Z,4.35
2023-09-08T08:15:39.065Z,4.30
2023-09-08T08:17:12.896Z,4.40
2023-09-08T08:18:46.965Z,5.95
2023-09-08T08:20:20.513Z,4.20
2023-09-08T08:21:54.097Z,4.07
2023-09-08T08:23:27.042Z,4.03
2023-09-08T08:25:00.603Z,6.55
2023-09-08T08:26:34.197Z,5.88
2023-09-08T08:28:07.118Z,4.38
2023-09-08T08:29:42.391Z,5.18
2023-09-08T08:31:14.961Z,4.72
2023-09-08T08:32:48.780Z,5.15
2023-09-08T08:34:21.390Z,4.55
2023-09-08T08:35:56.355Z,3.95
2023-09-08T08:37:29.001Z,4.22
2023-09-08T08:39:02.673Z,4.07
2023-09-08T08:40:39.556Z,4.43
2023-09-08T08:42:14.610Z,4.45
2023-09-08T08:43:48.735Z,5.07
2023-09-08T08:45:26.863Z,4.15
2023-09-08T08:47:02.301Z,4.15
2023-09-08T08:48:37.722Z,4.22
2023-09-08T08:50:12.220Z,4.07
2023-09-08T08:51:47.767Z,5.05
2023-09-08T08:53:23.782Z,5.22
2023-09-08T08:54:57.493Z,5.78
2023-09-08T08:56:31.263Z,4.25
2023-09-08T08:58:07.015Z,5.75
2023-09-08T08:59:42.362Z,4.47
2023-09-08T09:01:20.016Z,4.20
2023-09-08T09:03:07.190Z,6.68
2023-09-08T09:04:47.195Z,3.72
2023-09-08T09:06:20.932Z,4.07
2023-09-08T09:07:56.409Z,5.32
2023-09-08T09:09:31.245Z,3.80
2023-09-08T09:11:04.907Z,3.90
2023-09-08T09:12:39.660Z,4.70
2023-09-08T09:14:12.906Z,4.55
2023-09-08T09:15:47.548Z,4.57
2023-09-08T09:18:57.477Z,4.35
2023-09-08T09:20:31.221Z,5.22
2023-09-08T09:22:04.326Z,4.30
2023-09-08T09:23:37.835Z,4.57
2023-09-08T09:25:11.643Z,4.40
2023-09-08T09:26:45.936Z,4.78
2023-09-08T09:28:19.426Z,5.00
2023-09-08T09:29:52.486Z,4.18
2023-09-08T09:31:26.828Z,4.32
2023-09-08T09:33:06.270Z,6.03
2023-09-08T09:34:51.540Z,3.92
2023-09-08T09:36:24.202Z,4.70
2023-09-08T09:37:58.058Z,4.43
2023-09-08T09:39:31.866Z,4.18
2023-09-08T09:41:04.558Z,4.43
2023-09-08T09:42:42.014Z,4.55
2023-09-08T09:44:15.207Z,4.22
2023-09-08T09:45:49.073Z,4.70
2023-09-08T09:47:23.596Z,4.93
2023-09-08T09:50:34.116Z,4.47
2023-09-08T09:52:07.113Z,4.60
2023-09-08T09:53:45.055Z,4.40
2023-09-08T09:55:19.566Z,3.83
2023-09-08T09:58:30.455Z,5.32
2023-09-08T10:00:06.945Z,4.15
2023-09-08T10:01:42.186Z,4.55
2023-09-08T10:03:15.871Z,4.07
2023-09-08T10:04:52.346Z,3.83
2023-09-08T10:06:27.411Z,5.05
2023-09-08T10:08:02.116Z,5.53
2023-09-08T10:09:38.475Z,4.65
2023-09-08T10:11:16.007Z,4.85
2023-09-08T10:12:59.483Z,4.80
2023-09-08T10:14:36.524Z,4.88
2023-09-08T10:16:11.263Z,4.57
2023-09-08T10:17:49.504Z,5.05
2023-09-08T10:19:26.135Z,4.85
2023-09-08T10:21:06.432Z,4.75
2023-09-08T10:22:43.917Z,4.53
2023-09-08T10:24:25.873Z,6.30
2023-09-08T10:26:05.350Z,5.22
2023-09-08T10:27:40.401Z,6.05
2023-09-08T10:29:14.819Z,5.95
2023-09-08T10:32:23.688Z,5.50
2023-09-08T10:33:59.019Z,4.93
2023-09-08T10:35:32.111Z,5.25
2023-09-08T10:37:22.059Z,4.55
2023-09-08T10:38:57.625Z,4.97
2023-09-08T10:40:34.635Z,5.35
2023-09-08T10:42:29.697Z,4.85
2023-09-08T10:44:09.702Z,4.68
2023-09-08T10:45:43.419Z,6.35
2023-09-08T10:47:19.280Z,5.88
2023-09-08T10:48:55.475Z,5.00
2023-09-08T10:50:34.586Z,5.18
2023-09-08T10:52:13.844Z,6.40
2023-09-08T10:53:50.648Z,5.53
2023-09-08T10:55:37.810Z,5.95
2023-09-08T10:57:16.887Z,5.53
2023-09-08T10:58:53.863Z,3.70
2023-09-08T11:00:26.562Z,4.57
2023-09-08T11:02:00.084Z,6.40
2023-09-08T11:03:49.280Z,4.63
2023-09-08T11:05:22.448Z,6.03
2023-09-08T11:06:59.048Z,5.07
2023-09-08T11:08:35.064Z,8.60
2023-09-08T11:10:10.712Z,5.68
2023-09-08T11:11:45.104Z,5.40
2023-09-08T11:13:17.788Z,5.57
2023-09-08T11:14:51.778Z,4.07
2023-09-08T11:16:30.762Z,4.05
2023-09-08T11:18:08.272Z,6.18
2023-09-08T11:19:49.635Z,5.78
2023-09-08T11:21:22.634Z,6.32
2023-09-08T11:22:56.282Z,5.32
2023-09-08T11:24:32.044Z,6.03
2023-09-08T11:26:07.133Z,7.15
2023-09-08T11:27:40.800Z,5.60
2023-09-08T11:29:14.788Z,6.20
2023-09-08T11:30:50.008Z,5.57
2023-09-08T11:32:23.395Z,11.15
2023-09-08T11:33:58.401Z,4.47
2023-09-08T11:35:33.994Z,7.80
2023-09-08T11:37:11.509Z,5.07
2023-09-08T11:38:45.848Z,5.95
2023-09-08T11:40:22.493Z,6.60
2023-09-08T11:41:55.120Z,7.60
2023-09-08T11:43:28.950Z,7.03
2023-09-08T11:45:04.838Z,6.00
2023-09-08T11:46:39.915Z,6.45
2023-09-08T11:48:12.909Z,6.35
2023-09-08T11:49:47.271Z,6.60
2023-09-08T11:52:58.951Z,6.45
2023-09-08T11:54:32.784Z,7.43
2023-09-08T11:56:08.077Z,7.80
2023-09-08T11:57:41.799Z,6.75
2023-09-08T11:59:16.337Z,5.70
2023-09-08T12:00:50.721Z,5.97
2023-09-08T12:02:23.312Z,7.80
2023-09-08T12:03:59.155Z,6.60
2023-09-08T12:05:31.858Z,6.68
2023-09-08T12:07:05.927Z,7.28
2023-09-08T12:08:38.541Z,6.88
2023-09-08T12:10:15.022Z,4.50
2023-09-08T12:11:49.038Z,6.57
2023-09-08T12:13:24.926Z,9.45
2023-09-08T12:14:57.528Z,10.02
2023-09-08T12:16:31.597Z,4.97
2023-09-08T12:18:07.339Z,4.57
2023-09-08T12:19:41.005Z,4.45
2023-09-08T12:21:13.628Z,4.45
2023-09-08T12:22:52.024Z,6.95
2023-09-08T12:24:50.685Z,9.10
2023-09-08T12:26:26.903Z,6.95
2023-09-08T12:28:02.837Z,6.50
2023-09-08T12:29:35.720Z,4.10
2023-09-08T12:31:11.267Z,7.10
2023-09-08T12:32:46.555Z,8.60
2023-09-08T12:34:20.527Z,6.75
2023-09-08T12:35:54.921Z,6.47
2023-09-08T12:37:28.776Z,7.03
2023-09-08T12:39:06.851Z,5.43
2023-09-08T12:40:41.173Z,6.50
2023-09-08T12:42:13.731Z,8.60
2023-09-08T12:43:48.635Z,8.00
2023-09-08T12:45:24.602Z,8.77
2023-09-08T12:46:58.306Z,7.43
2023-09-08T12:48:30.902Z,7.45
2023-09-08T12:50:04.568Z,5.50
2023-09-08T12:51:38.316Z,6.82
2023-09-08T12:53:11.840Z,7.50
2023-09-08T12:54:44.289Z,7.10
2023-09-08T12:56:19.237Z,6.20
2023-09-08T12:57:55.650Z,7.25
2023-09-08T12:59:29.517Z,7.30
2023-09-08T13:01:03.287Z,5.05
2023-09-08T13:02:54.895Z,3.83
2023-09-08T13:04:27.505Z,10.43
2023-09-08T13:06:00.992Z,7.60
2023-09-08T13:07:33.632Z,7.47
2023-09-08T13:09:08.365Z,8.52
2023-09-08T13:10:42.019Z,8.20
2023-09-08T13:12:14.933Z,4.70
2023-09-08T13:13:48.470Z,5.45
2023-09-08T13:15:25.072Z,6.60
2023-09-08T13:16:57.770Z,4.35
2023-09-08T13:18:36.810Z,3.88
2023-09-08T13:20:13.250Z,4.50
2023-09-08T13:21:46.830Z,9.68
2023-09-08T13:23:19.578Z,7.40
2023-09-08T13:24:53.052Z,7.60
2023-09-08T13:26:25.652Z,7.80
2023-09-08T13:27:59.463Z,4.25
2023-09-08T13:29:32.042Z,8.20
2023-09-08T13:31:06.879Z,7.00
2023-09-08T13:32:40.004Z,7.28
2023-09-08T13:34:13.680Z,4.38
2023-09-08T13:35:46.307Z,7.68
2023-09-08T13:37:19.770Z,4.72
2023-09-08T13:38:52.321Z,6.68
2023-09-08T13:40:25.960Z,7.53
2023-09-08T13:42:03.839Z,8.55
2023-09-08T13:43:37.105Z,7.50
2023-09-08T13:45:11.947Z,8.88
2023-09-08T13:46:47.185Z,5.93
2023-09-08T13:48:21.582Z,8.23
2023-09-08T13:49:57.693Z,8.55
2023-09-08T13:51:34.382Z,8.02
2023-09-08T13:53:09.697Z,8.52
2023-09-08T13:54:45.967Z,5.07
2023-09-08T13:56:20.735Z,8.15
2023-09-08T13:57:56.060Z,4.78
2023-09-08T13:59:35.881Z,4.40
2023-09-08T14:01:12.165Z,9.02
2023-09-08T14:02:51.075Z,9.10
2023-09-08T14:04:25.758Z,8.10
2023-09-08T14:07:43.456Z,9.45
2023-09-08T14:09:43.050Z,10.68
2023-09-08T14:11:16.244Z,9.57
2023-09-08T14:12:58.173Z,9.65
2023-09-08T14:14:31.778Z,4.72
2023-09-08T14:16:04.800Z,9.02
2023-09-08T14:17:38.372Z,14.05
2023-09-08T14:19:12.215Z,11.63
2023-09-08T14:20:46.148Z,8.98
2023-09-08T14:22:18.658Z,8.90
2023-09-08T14:23:52.186Z,11.00
2023-09-08T14:25:24.647Z,9.43
2023-09-08T14:26:58.210Z,9.32
2023-09-08T14:28:33.163Z,7.60
2023-09-08T14:30:07.359Z,9.68
2023-09-08T14:33:13.295Z,4.85
2023-09-08T14:34:48.212Z,11.68
2023-09-08T14:36:21.214Z,11.63
2023-09-08T14:37:54.710Z,4.43
2023-09-08T14:39:28.431Z,9.10
2023-09-08T14:41:03.247Z,8.38
2023-09-08T14:42:36.857Z,7.55
2023-09-08T14:44:09.620Z,7.05
2023-09-08T14:45:43.410Z,8.65
2023-09-08T14:47:15.871Z,10.30
2023-09-08T14:48:49.630Z,11.95
2023-09-08T14:50:23.686Z,9.07
2023-09-08T14:51:57.914Z,7.72
2023-09-08T14:53:32.285Z,4.65
2023-09-08T14:56:38.543Z,9.68
2023-09-08T14:58:13.442Z,7.60
2023-09-08T14:59:45.930Z,8.73
2023-09-08T15:01:20.057Z,10.27
2023-09-08T15:02:52.765Z,5.25
2023-09-08T15:04:26.709Z,5.65
2023-09-08T15:06:00.961Z,11.48
2023-09-08T15:09:08.746Z,4.88
2023-09-08T15:10:45.234Z,5.07
2023-09-08T15:12:19.792Z,5.82
2023-09-08T15:13:53.664Z,9.38
2023-09-08T15:15:26.438Z,17.33
2023-09-08T15:17:04.165Z,10.02
2023-09-08T15:18:37.802Z,3.97
2023-09-08T15:20:11.326Z,8.55
2023-09-08T15:21:46.311Z,11.93
2023-09-08T15:23:18.950Z,4.20
2023-09-08T15:24:53.772Z,4.47
2023-09-08T15:26:26.687Z,4.47
2023-09-08T15:28:00.252Z,8.93
2023-09-08T15:29:32.852Z,7.03
2023-09-08T15:31:09.329Z,7.43
2023-09-08T15:32:42.243Z,4.80
2023-09-08T15:34:18.649Z,4.63
2023-09-08T15:35:56.459Z,7.88
2023-09-08T15:37:30.396Z,7.00
2023-09-08T15:39:06.761Z,5.45
2023-09-08T15:40:39.850Z,6.18
2023-09-08T15:42:15.507Z,5.93
2023-09-08T15:43:53.169Z,4.80
2023-09-08T15:45:27.219Z,7.13
2023-09-08T15:46:59.820Z,5.50
2023-09-08T15:48:35.118Z,5.97
2023-09-08T15:50:13.055Z,6.32
2023-09-08T15:51:51.552Z,4.90
2023-09-08T15:53:29.238Z,6.28
2023-09-08T15:55:12.381Z,5.25
2023-09-08T15:56:47.286Z,5.28
2023-09-08T15:58:25.564Z,3.33
2023-09-08T15:59:59.025Z,4.65
2023-09-08T16:01:34.668Z,4.65
2023-09-08T16:03:08.561Z,5.15
2023-09-08T16:04:44.264Z,4.47
2023-09-08T16:06:19.872Z,4.55
2023-09-08T16:07:53.623Z,4.50
2023-09-08T16:09:28.201Z,4.72
2023-09-08T16:11:03.309Z,4.93
2023-09-08T16:12:36.773Z,5.10
2023-09-08T16:14:09.592Z,3.88
2023-09-08T16:15:44.362Z,4.65
2023-09-08T16:17:18.090Z,4.32
2023-09-08T16:18:50.592Z,3.60
2023-09-08T16:20:24.117Z,3.53
2023-09-08T16:21:57.683Z,5.90
2023-09-08T16:23:36.353Z,3.90
2023-09-08T16:25:10.772Z,4.47
2023-09-08T16:26:44.399Z,3.95
2023-09-08T16:28:17.950Z,3.63
2023-09-08T16:29:51.611Z,4.25
2023-09-08T16:31:24.256Z,4.05
2023-09-08T16:32:58.167Z,3.78
2023-09-08T16:34:31.703Z,4.45
2023-09-08T16:36:10.586Z,4.53
2023-09-08T16:37:47.091Z,4.20
2023-09-08T16:39:19.969Z,3.75
2023-09-08T16:40:54.897Z,4.63
2023-09-08T16:42:27.533Z,3.75
2023-09-08T16:44:01.322Z,3.63
2023-09-08T16:45:34.850Z,5.22
2023-09-08T16:47:08.205Z,4.20
2023-09-08T16:48:41.815Z,3.55
2023-09-08T16:50:18.575Z,3.85
2023-09-08T16:51:54.849Z,4.00
2023-09-08T16:53:28.070Z,4.50
2023-09-08T16:55:01.752Z,4.07
2023-09-08T16:56:37.002Z,3.35
2023-09-08T16:58:09.872Z,4.40
2023-09-08T16:59:43.618Z,3.75
2023-09-08T17:01:17.302Z,4.28
2023-09-08T17:02:49.863Z,3.55
2023-09-08T17:04:23.693Z,3.88
2023-09-08T17:05:57.364Z,4.30
2023-09-08T17:07:30.029Z,4.22
2023-09-08T17:09:04.246Z,3.95
2023-09-08T17:10:36.951Z,3.95
2023-09-08T17:12:12.022Z,4.80
2023-09-08T17:13:48.924Z,4.28
2023-09-08T17:15:21.869Z,3.90
2023-09-08T17:16:55.475Z,5.15
2023-09-08T17:18:31.126Z,3.42
2023-09-08T17:20:06.189Z,4.35
2023-09-08T17:21:38.724Z,3.80
2023-09-08T17:23:12.313Z,3.95
2023-09-08T17:24:44.974Z,4.20
2023-09-08T17:26:18.734Z,4.35
2023-09-08T17:27:52.782Z,4.20
2023-09-08T17:29:26.525Z,3.85
2023-09-08T17:30:58.995Z,3.70
2023-09-08T17:32:32.703Z,4.63
2023-09-08T17:34:08.604Z,4.03
2023-09-08T17:35:42.441Z,4.60
2023-09-08T17:37:14.957Z,3.83
2023-09-08T17:38:49.016Z,5.53
2023-09-08T17:40:23.230Z,4.90
2023-09-08T17:41:56.082Z,4.47
2023-09-08T17:43:31.249Z,5.00
2023-09-08T17:45:05.142Z,4.35
2023-09-08T17:46:39.122Z,5.40
2023-09-08T17:48:12.105Z,4.53
2023-09-08T17:49:45.742Z,5.18
2023-09-08T17:51:18.220Z,5.40
2023-09-08T17:52:51.646Z,4.50
2023-09-08T17:54:24.259Z,4.97
2023-09-08T17:55:57.732Z,5.32
2023-09-08T17:57:30.320Z,5.75
2023-09-08T17:59:07.341Z,4.65
2023-09-08T18:00:41.694Z,5.05
2023-09-08T18:02:14.623Z,4.75
2023-09-08T18:03:49.670Z,5.65
2023-09-08T18:05:22.201Z,4.88
2023-09-08T18:06:55.797Z,5.47
2023-09-08T18:08:28.327Z,6.85
2023-09-08T18:10:01.915Z,5.28
2023-09-08T18:11:34.830Z,5.10
2023-09-08T18:13:09.826Z,7.75
2023-09-08T18:14:43.950Z,4.20
2023-09-08T18:16:17.629Z,5.10
2023-09-08T18:17:50.054Z,3.65
2023-09-08T18:19:23.653Z,5.70
2023-09-08T18:20:56.781Z,5.90
2023-09-08T18:22:30.420Z,9.82
2023-09-08T18:24:04.271Z,11.88
2023-09-08T18:25:37.766Z,10.02
2023-09-08T18:27:10.362Z,8.75
2023-09-08T18:28:43.998Z,8.68
2023-09-08T18:30:18.259Z,8.95
2023-09-08T18:31:51.871Z,9.82
2023-09-08T18:33:25.241Z,8.07
2023-09-08T18:34:58.923Z,5.97
2023-09-08T18:36:31.440Z,4.82
2023-09-08T18:38:07.498Z,5.15
2023-09-08T18:39:41.496Z,5.28
2023-09-08T18:41:14.995Z,6.32
2023-09-08T18:42:48.626Z,4.50
2023-09-08T18:44:22.498Z,4.47
2023-09-08T18:45:56.272Z,4.40
2023-09-08T18:47:29.741Z,3.47
2023-09-08T18:49:02.551Z,4.05
2023-09-08T18:50:36.226Z,5.47
2023-09-08T18:52:10.981Z,6.95
2023-09-08T18:53:43.497Z,6.75
2023-09-08T18:55:17.487Z,9.60
2023-09-08T18:56:50.115Z,8.65
2023-09-08T18:58:25.291Z,6.90
2023-09-08T18:59:58.041Z,5.68
2023-09-08T19:01:33.258Z,5.07
2023-09-08T19:03:06.242Z,4.97
2023-09-08T19:04:40.068Z,5.82
2023-09-08T19:06:12.719Z,6.03
2023-09-08T19:07:50.835Z,5.63
2023-09-08T19:09:23.604Z,4.43
2023-09-08T19:10:57.092Z,4.90
2023-09-08T19:12:29.670Z,4.72
2023-09-08T19:14:03.483Z,3.67
2023-09-08T19:15:36.134Z,4.88
2023-09-08T19:17:12.350Z,4.70
2023-09-08T19:18:46.061Z,6.13
2023-09-08T19:20:20.018Z,5.45
2023-09-08T19:21:54.800Z,5.32
2023-09-08T19:23:27.310Z,5.38
2023-09-08T19:25:00.875Z,4.68
2023-09-08T19:26:33.462Z,6.53
2023-09-08T19:28:08.248Z,5.22
2023-09-08T19:31:14.166Z,5.53
2023-09-08T19:32:49.167Z,5.90
2023-09-08T19:34:23.051Z,7.00
2023-09-08T19:35:56.657Z,6.00
2023-09-08T19:37:30.225Z,6.30
2023-09-08T19:39:04.849Z,5.18
2023-09-08T19:40:40.112Z,4.65
2023-09-08T19:42:17.063Z,4.78
2023-09-08T19:43:49.653Z,6.18
2023-09-08T19:45:25.141Z,4.45
2023-09-08T19:46:58.189Z,5.65
2023-09-08T19:48:35.476Z,3.85
2023-09-08T19:50:10.198Z,5.38
2023-09-08T19:53:17.055Z,4.20
2023-09-08T19:54:50.876Z,4.55
2023-09-08T19:56:23.906Z,4.95
2023-09-08T19:57:58.819Z,13.30
2023-09-08T20:01:14.158Z,25.98
2023-09-08T20:02:46.918Z,12.07
2023-09-08T20:04:21.975Z,12.27
2023-09-08T20:05:54.973Z,11.10
2023-09-08T20:07:28.511Z,19.00
2023-09-08T20:09:01.165Z,13.63
2023-09-08T20:10:34.839Z,11.63
2023-09-08T20:12:08.029Z,6.75
2023-09-08T20:13:42.108Z,5.97
2023-09-08T20:15:15.129Z,6.95
2023-09-08T20:16:48.867Z,6.95
2023-09-08T20:18:22.017Z,5.10
2023-09-08T20:19:57.705Z,5.82
2023-09-08T20:21:30.475Z,8.73
2023-09-08T20:23:12.917Z,20.63
2023-09-08T20:24:46.664Z,14.85
2023-09-08T20:26:24.386Z,9.90
2023-09-08T20:28:04.146Z,19.92
2023-09-08T20:29:36.812Z,24.87
2023-09-08T20:31:17.568Z,21.85
2023-09-08T20:32:50.965Z,14.40
2023-09-08T20:34:24.592Z,11.63
2023-09-08T20:36:01.477Z,13.13
2023-09-08T20:37:35.119Z,15.60
2023-09-08T20:39:07.767Z,21.17
2023-09-08T20:40:49.940Z,28.05
2023-09-08T20:42:22.497Z,23.35
2023-09-08T20:43:56.013Z,16.48
2023-09-08T20:45:28.506Z,16.08
2023-09-08T20:47:02.045Z,26.95
2023-09-08T20:48:37.856Z,20.17
2023-09-08T20:50:11.005Z,14.32
2023-09-08T20:51:45.892Z,18.45
2023-09-08T20:53:18.748Z,22.15
2023-09-08T20:54:52.347Z,22.65
2023-09-08T20:56:24.916Z,20.13
2023-09-08T20:57:58.395Z,20.00
2023-09-08T20:59:31.203Z,15.10
2023-09-08T21:01:05.552Z,15.55
2023-09-08T21:02:38.084Z,10.90
2023-09-08T21:04:11.685Z,12.90
2023-09-08T21:05:44.450Z,8.85
2023-09-08T21:07:19.574Z,9.20
2023-09-08T21:08:51.978Z,10.95
2023-09-08T21:10:25.433Z,11.88
2023-09-08T21:11:57.930Z,10.80
2023-09-08T21:13:31.550Z,9.52
2023-09-08T21:15:05.338Z,10.25
2023-09-08T21:16:38.836Z,9.55
2023-09-08T21:18:12.378Z,9.23
2023-09-08T21:19:45.925Z,8.95
2023-09-08T21:21:18.892Z,15.50
2023-09-08T21:22:53.917Z,14.25
2023-09-08T21:24:26.610Z,13.43
2023-09-08T21:26:00.417Z,11.40
2023-09-08T21:27:33.025Z,10.02